Time;durP1;ratioP1;P1;durP2;ratioP2;P2;SDS_P1;SDS_P2;PMS_P1;PMS_P2;Temp;Humidity;BMP_temperature;BMP_pressure;BME280_temperature;BME280_humidity;BME280_pressure;Samples;Min_cycle;Max_cycle;Signal;HPM_P1;HPM_P2
2022/09/07 00:01:02;;;;;;;10.75;3.60;;;;;;;17.26;100.00;101234.00;5036448;28;20052;-70
2022/09/07 00:03:28;;;;;;;7.07;4.38;;;;;;;17.23;100.00;101228.69;5049805;28;20039;-71
2022/09/07 00:05:54;;;;;;;10.30;4.25;;;;;;;17.14;100.00;101217.19;5037538;28;20443;-69
2022/09/07 00:08:22;;;;;;;11.75;4.80;;;;;;;17.13;100.00;101206.56;5038594;28;20021;-69
2022/09/07 00:11:09;;;;;;;9.95;4.60;;;;;;;17.10;100.00;101219.88;5041903;28;20041;-68
2022/09/07 00:13:37;;;;;;;9.35;3.97;;;;;;;17.05;100.00;101211.94;5035748;28;20033;-69
2022/09/07 00:16:15;;;;;;;8.15;4.20;;;;;;;17.03;100.00;101203.06;5043256;28;20030;-69
2022/09/07 00:18:40;;;;;;;13.30;4.03;;;;;;;16.97;100.00;101193.34;5038761;28;20040;-69
2022/09/07 00:21:08;;;;;;;14.32;4.38;;;;;;;16.99;100.00;101199.53;5049796;28;20025;-69
2022/09/07 00:23:35;;;;;;;12.23;4.22;;;;;;;17.01;100.00;101186.22;5035931;28;20484;-69
2022/09/07 00:26:06;;;;;;;10.13;3.97;;;;;;;17.02;100.00;101177.38;5047146;28;20025;-69
2022/09/07 00:28:32;;;;;;;8.02;3.67;;;;;;;16.94;100.00;101164.13;5033522;28;20433;-69
2022/09/07 00:30:57;;;;;;;9.98;3.13;;;;;;;16.88;100.00;101165.91;5035817;28;20021;-69
2022/09/07 00:33:22;;;;;;;10.90;3.03;;;;;;;16.89;100.00;101173.91;5046872;28;20462;-69
2022/09/07 00:35:48;;;;;;;7.03;3.00;;;;;;;16.85;100.00;101175.66;5033263;28;20021;-69
2022/09/07 00:38:13;;;;;;;8.85;3.13;;;;;;;16.85;100.00;101173.00;5046316;28;20032;-69
2022/09/07 00:40:38;;;;;;;7.25;3.33;;;;;;;16.88;100.00;101168.56;5036598;28;20061;-70
2022/09/07 00:43:05;;;;;;;5.88;3.63;;;;;;;16.92;100.00;101175.66;5040513;28;20024;-70
2022/09/07 00:45:31;;;;;;;5.88;3.95;;;;;;;16.99;100.00;101182.72;5038734;28;20508;-69
2022/09/07 00:48:06;;;;;;;6.95;3.85;;;;;;;16.98;100.00;101180.94;5048789;28;20052;-69
2022/09/07 00:50:36;;;;;;;8.80;4.15;;;;;;;16.96;100.00;101177.41;5046711;28;20032;-69
2022/09/07 00:53:08;;;;;;;7.93;4.78;;;;;;;17.00;100.00;101182.69;5034252;28;20070;-69
2022/09/07 00:55:36;;;;;;;10.32;4.50;;;;;;;17.03;100.00;101187.13;5036342;28;20036;-69
2022/09/07 00:58:02;;;;;;;9.27;4.63;;;;;;;17.02;100.00;101194.22;5034170;28;20048;-68
2022/09/07 01:00:28;;;;;;;8.45;4.18;;;;;;;16.96;100.00;101194.25;5032500;28;20381;-69
2022/09/07 01:02:57;;;;;;;8.57;4.55;;;;;;;16.98;100.00;101196.88;5035111;28;20051;-69
2022/09/07 01:05:28;;;;;;;7.80;4.60;;;;;;;17.01;100.00;101194.22;5039591;28;20032;-69
2022/09/07 01:07:55;;;;;;;6.50;4.40;;;;;;;17.02;100.00;101191.56;5038388;28;20071;-69
2022/09/07 01:10:24;;;;;;;7.95;3.53;;;;;;;16.93;100.00;101194.25;5047801;28;20025;-69
2022/09/07 01:12:49;;;;;;;5.82;3.80;;;;;;;17.03;100.00;101189.78;5042762;28;20045;-69
2022/09/07 01:15:15;;;;;;;9.07;4.75;;;;;;;17.08;100.00;101197.72;5033689;28;20540;-69
2022/09/07 01:18:00;;;;;;;8.20;5.07;;;;;;;17.13;100.00;101196.84;5040341;28;20030;-69
2022/09/07 01:21:11;;;;;;;11.32;5.35;;;;;;;17.17;100.00;101205.66;5032675;28;20079;-69
2022/09/07 01:24:06;;;;;;;8.90;4.75;;;;;;;17.11;100.00;101209.25;5030836;28;20037;-69
2022/09/07 01:26:42;;;;;;;7.95;4.80;;;;;;;17.14;100.00;101211.88;5049454;28;20378;-69
2022/09/07 01:29:20;;;;;;;13.90;4.93;;;;;;;17.11;100.00;101213.69;5046988;28;20037;-68
2022/09/07 01:32:00;;;;;;;13.82;4.55;;;;;;;17.11;100.00;101206.59;5032286;28;20035;-68
2022/09/07 01:34:26;;;;;;;10.63;4.97;;;;;;;17.11;100.00;101208.38;5034154;28;20029;-69
2022/09/07 01:37:06;;;;;;;11.43;5.03;;;;;;;17.04;100.00;101207.50;5037105;28;20450;-68
2022/09/07 01:39:50;;;;;;;12.38;5.72;;;;;;;17.06;100.00;101219.00;5032709;28;20477;-69
2022/09/07 01:42:21;;;;;;;11.52;5.97;;;;;;;17.10;100.00;101217.22;5032149;28;20112;-69
2022/09/07 01:44:54;;;;;;;11.65;6.25;;;;;;;17.21;100.00;101219.84;5036811;28;20036;-70
2022/09/07 01:47:27;;;;;;;10.45;5.55;;;;;;;17.15;100.00;101220.75;5032520;28;20080;-70
2022/09/07 01:50:08;;;;;;;11.38;5.97;;;;;;;17.14;100.00;101211.88;5032517;28;20059;-70
2022/09/07 01:52:43;;;;;;;8.10;5.30;;;;;;;17.22;100.00;101210.97;5032479;28;20053;-69
2022/09/07 01:55:18;;;;;;;12.38;6.05;;;;;;;17.19;100.00;101202.09;5044090;28;20079;-70
2022/09/07 01:58:18;;;;;;;9.65;5.55;;;;;;;17.13;100.00;101202.16;5048152;28;20426;-68
2022/09/07 02:00:47;;;;;;;11.10;5.97;;;;;;;17.14;100.00;101205.69;5048359;28;20454;-69
2022/09/07 02:03:18;;;;;;;13.30;6.22;;;;;;;17.18;100.00;101210.97;5047726;28;20049;-69
2022/09/07 02:05:52;;;;;;;13.57;6.35;;;;;;;17.19;100.00;101207.44;5039999;28;20051;-69
2022/09/07 02:08:26;;;;;;;12.73;6.40;;;;;;;17.22;100.00;101200.34;5038706;28;20056;-68
2022/09/07 02:10:58;;;;;;;12.23;6.63;;;;;;;17.20;100.00;101203.00;5038166;28;20120;-69
2022/09/07 02:13:36;;;;;;;9.95;5.80;;;;;;;17.17;100.00;101206.56;5035608;28;20029;-68
2022/09/07 02:16:32;;;;;;;12.93;6.55;;;;;;;17.10;100.00;101201.28;5035948;28;20029;-69
2022/09/07 02:19:05;;;;;;;8.63;5.70;;;;;;;17.09;100.00;101197.75;5027313;28;20037;-69
2022/09/07 02:21:36;;;;;;;8.00;5.07;;;;;;;17.08;100.00;101193.31;5035670;28;20033;-69
2022/09/07 02:24:14;;;;;;;8.15;5.78;;;;;;;17.07;100.00;101195.97;5050469;28;20024;-68
2022/09/07 02:26:40;;;;;;;8.48;5.22;;;;;;;17.12;100.00;101194.16;5047823;28;20041;-70
2022/09/07 02:29:06;;;;;;;15.00;4.95;;;;;;;17.08;100.00;101201.28;5046387;28;20033;-69
2022/09/07 02:31:32;;;;;;;11.20;5.32;;;;;;;17.07;100.00;101207.50;5039902;28;20489;-69
2022/09/07 02:34:00;;;;;;;8.25;5.10;;;;;;;17.13;100.00;101207.47;5043698;28;20424;-68
2022/09/07 02:36:31;;;;;;;7.85;3.92;;;;;;;17.10;100.00;101212.78;5046976;28;20069;-69
2022/09/07 02:38:56;;;;;;;10.68;3.95;;;;;;;17.05;100.00;101214.59;5053247;28;20020;-69
2022/09/07 02:41:40;;;;;;;7.03;3.90;;;;;;;17.04;100.00;101212.81;5034974;28;20059;-69
2022/09/07 02:44:14;;;;;;;;;;;;;;;17.04;100.00;101212.81;5035626;28;20414;-69
2022/09/07 02:47:07;;;;;;;7.90;3.75;;;;;;;16.98;100.00;101218.16;5036548;28;20316;-69
2022/09/07 02:49:51;;;;;;;8.80;4.03;;;;;;;16.98;100.00;101212.84;5046551;28;20029;-69
2022/09/07 02:52:20;;;;;;;11.63;4.28;;;;;;;16.91;100.00;101211.09;5052193;28;20043;-69
2022/09/07 02:55:04;;;;;;;7.32;3.90;;;;;;;16.88;100.00;101217.28;5043894;28;20024;-68
2022/09/07 02:57:53;;;;;;;7.13;4.70;;;;;;;16.90;100.00;101217.31;5050867;28;20055;-69
2022/09/07 03:00:24;;;;;;;12.48;4.80;;;;;;;16.98;100.00;101212.84;5045587;28;20025;-69
2022/09/07 03:03:21;;;;;;;9.65;4.40;;;;;;;16.93;100.00;101198.69;5044130;28;20029;-69
2022/09/07 03:05:53;;;;;;;7.53;4.63;;;;;;;16.86;100.00;101198.69;5033374;28;20437;-69
2022/09/07 03:08:24;;;;;;;8.73;4.97;;;;;;;16.83;100.00;101204.03;5034657;28;20033;-69
2022/09/07 03:10:52;;;;;;;7.88;4.80;;;;;;;16.80;100.00;101198.69;5034605;28;20183;-69
2022/09/07 03:13:26;;;;;;;10.48;5.07;;;;;;;16.78;100.00;101189.84;5037038;28;20500;-69
2022/09/07 03:15:51;;;;;;;8.38;5.03;;;;;;;16.76;100.00;101181.00;5035641;28;20030;-69
2022/09/07 03:18:17;;;;;;;7.95;4.85;;;;;;;16.72;100.00;101179.22;5037903;28;20029;-68
2022/09/07 03:20:42;;;;;;;11.00;5.05;;;;;;;16.69;100.00;101181.91;5033671;28;20108;-68
2022/09/07 03:23:07;;;;;;;8.73;5.30;;;;;;;16.68;100.00;101178.38;5034565;28;20524;-69
2022/09/07 03:25:33;;;;;;;6.65;4.57;;;;;;;16.65;100.00;101174.84;5033968;28;20426;-69
2022/09/07 03:27:58;;;;;;;9.13;4.95;;;;;;;16.61;100.00;101165.97;5034126;28;20025;-69
2022/09/07 03:30:23;;;;;;;7.35;4.70;;;;;;;16.60;100.00;101164.22;5034212;28;20331;-69
2022/09/07 03:32:49;;;;;;;10.50;5.25;;;;;;;16.62;100.00;101157.13;5034394;28;20500;-68
2022/09/07 03:35:14;;;;;;;7.22;4.68;;;;;;;16.62;100.00;101161.56;5045424;28;20040;-69
2022/09/07 03:37:40;;;;;;;8.00;4.70;;;;;;;16.55;100.00;101167.78;5050957;28;20052;-69
2022/09/07 03:40:08;;;;;;;8.68;4.80;;;;;;;16.46;100.00;101161.59;5049910;28;20025;-70
2022/09/07 03:42:35;;;;;;;6.38;5.18;;;;;;;16.49;100.00;101151.00;5051694;28;20056;-69
2022/09/07 03:45:00;;;;;;;7.15;4.88;;;;;;;16.49;100.00;101148.34;5037275;28;20514;-69
2022/09/07 03:47:26;;;;;;;7.10;4.47;;;;;;;16.49;100.00;101148.34;5053979;28;20107;-68
2022/09/07 03:49:51;;;;;;;9.60;4.32;;;;;;;16.42;100.00;101161.63;5051669;28;20085;-69
2022/09/07 03:52:17;;;;;;;10.48;5.15;;;;;;;16.34;100.00;101164.28;5053796;28;20421;-69
2022/09/07 03:54:42;;;;;;;8.07;4.90;;;;;;;16.35;100.00;101155.44;5037267;28;20461;-69
2022/09/07 03:57:08;;;;;;;13.07;5.28;;;;;;;16.35;100.00;101158.97;5053832;28;20029;-69
2022/09/07 03:59:34;;;;;;;9.82;5.20;;;;;;;16.33;100.00;101165.16;5052244;28;20025;-70
2022/09/07 04:02:00;;;;;;;8.90;5.20;;;;;;;16.29;100.00;101168.72;5047481;28;20086;-69
2022/09/07 04:04:25;;;;;;;9.02;5.30;;;;;;;16.21;100.00;101170.50;5038505;28;20037;-69
2022/09/07 04:06:50;;;;;;;12.13;6.18;;;;;;;16.13;100.00;101174.06;5036102;28;20053;-69
2022/09/07 04:09:16;;;;;;;10.13;5.40;;;;;;;16.14;100.00;101175.84;5033032;28;20393;-69
2022/09/07 04:11:41;;;;;;;8.80;5.45;;;;;;;16.14;100.00;101183.81;5048437;28;20394;-69
2022/09/07 04:14:08;;;;;;;6.90;4.60;;;;;;;16.16;100.00;101168.75;5048702;28;20032;-70
2022/09/07 04:16:34;;;;;;;7.50;5.40;;;;;;;16.16;100.00;101171.41;5033150;28;20485;-70
2022/09/07 04:18:59;;;;;;;10.88;5.03;;;;;;;16.16;100.00;101168.75;5034546;28;20068;-69
2022/09/07 04:21:28;;;;;;;6.95;4.15;;;;;;;16.15;100.00;101172.28;5034344;28;20050;-70
2022/09/07 04:23:54;;;;;;;6.20;4.72;;;;;;;16.13;100.00;101173.19;5033286;28;20025;-69
2022/09/07 04:26:20;;;;;;;7.93;4.82;;;;;;;16.11;100.00;101173.16;5045260;28;20385;-70
2022/09/07 04:28:46;;;;;;;5.65;4.65;;;;;;;16.12;100.00;101174.94;5048146;28;20025;-68
2022/09/07 04:31:16;;;;;;;6.68;4.35;;;;;;;16.12;100.00;101177.59;5039837;28;20542;-70
2022/09/07 04:33:43;;;;;;;12.80;4.80;;;;;;;16.11;100.00;101175.81;5041217;28;20030;-69
2022/09/07 04:36:09;;;;;;;5.13;3.67;;;;;;;16.11;100.00;101170.50;5036473;28;20036;-68
2022/09/07 04:38:34;;;;;;;5.70;3.50;;;;;;;16.09;100.00;101166.09;5033045;28;20036;-69
2022/09/07 04:41:07;;;;;;;6.50;3.45;;;;;;;16.05;100.00;101169.63;5031565;28;20041;-68
2022/09/07 04:43:33;;;;;;;4.68;3.33;;;;;;;16.06;100.00;101166.09;5034037;28;20380;-69
2022/09/07 04:46:02;;;;;;;4.70;3.15;;;;;;;16.04;100.00;101166.09;5036192;28;20028;-69
2022/09/07 04:48:27;;;;;;;6.10;3.65;;;;;;;16.05;100.00;101172.28;5032470;28;20029;-71
2022/09/07 04:50:53;;;;;;;4.80;3.22;;;;;;;15.98;100.00;101168.78;5035540;28;20032;-70
2022/09/07 04:53:18;;;;;;;7.55;3.88;;;;;;;16.01;100.00;101164.34;5036149;28;20037;-69
2022/09/07 04:55:44;;;;;;;3.92;3.15;;;;;;;16.01;100.00;101168.78;5040834;28;20460;-69
2022/09/07 04:58:09;;;;;;;7.88;3.05;;;;;;;16.04;100.00;101160.81;5033788;28;20025;-69
2022/09/07 05:00:37;;;;;;;11.00;4.80;;;;;;;16.01;100.00;101163.47;5034322;28;20032;-69
2022/09/07 05:03:03;;;;;;;6.75;3.90;;;;;;;15.97;100.00;101159.03;5039239;28;20032;-70
2022/09/07 05:05:29;;;;;;;7.85;4.35;;;;;;;15.92;100.00;101163.47;5038903;28;20029;-69
2022/09/07 05:07:54;;;;;;;11.48;4.00;;;;;;;15.93;100.00;101149.31;5052885;28;20056;-69
2022/09/07 05:10:19;;;;;;;7.63;4.13;;;;;;;15.95;100.00;101156.41;5040839;28;20140;-69
2022/09/07 05:12:45;;;;;;;7.20;4.53;;;;;;;15.94;100.00;101145.75;5046794;28;20092;-69
2022/09/07 05:15:10;;;;;;;8.30;4.60;;;;;;;15.89;100.00;101145.78;5046571;28;20025;-66
2022/09/07 05:17:36;;;;;;;7.13;4.90;;;;;;;15.84;100.00;101156.41;5048384;28;20132;-67
2022/09/07 05:20:01;;;;;;;6.75;4.85;;;;;;;15.85;100.00;101165.22;5034748;28;20521;-70
2022/09/07 05:22:27;;;;;;;11.02;5.57;;;;;;;15.88;100.00;101161.69;5042082;28;20029;-70
2022/09/07 05:24:52;;;;;;;9.25;5.18;;;;;;;15.89;100.00;101163.47;5036638;28;20024;-70
2022/09/07 05:27:17;;;;;;;9.05;5.95;;;;;;;15.89;100.00;101159.03;5044735;28;20053;-69
2022/09/07 05:29:45;;;;;;;9.88;6.40;;;;;;;15.90;100.00;101159.91;5046328;28;20014;-69
2022/09/07 05:32:10;;;;;;;13.00;7.50;;;;;;;15.94;100.00;101161.69;5042436;28;20044;-69
2022/09/07 05:34:35;;;;;;;12.55;7.13;;;;;;;15.92;100.00;101156.38;5032803;28;20133;-69
2022/09/07 05:37:01;;;;;;;12.40;6.85;;;;;;;15.90;100.00;101167.88;5037249;28;20359;-68
2022/09/07 05:39:27;;;;;;;11.10;6.80;;;;;;;15.89;100.00;101163.47;5042311;28;20025;-70
2022/09/07 05:41:52;;;;;;;12.05;7.63;;;;;;;15.93;100.00;101167.91;5051003;28;20029;-69
2022/09/07 05:44:18;;;;;;;9.65;7.18;;;;;;;15.96;100.00;101170.53;5050172;28;20436;-70
2022/09/07 05:46:44;;;;;;;11.65;7.68;;;;;;;15.96;100.00;101170.53;5035962;28;20114;-69
2022/09/07 05:49:09;;;;;;;12.32;7.82;;;;;;;15.97;100.00;101174.97;5039413;28;20025;-70
2022/09/07 05:51:36;;;;;;;15.70;8.85;;;;;;;15.95;100.00;101184.69;5048454;28;20059;-69
2022/09/07 05:54:01;;;;;;;11.88;7.97;;;;;;;15.97;100.00;101189.13;5037229;28;20080;-69
2022/09/07 05:56:27;;;;;;;11.65;8.43;;;;;;;15.98;100.00;101184.72;5042838;28;20120;-69
2022/09/07 05:58:52;;;;;;;12.25;8.68;;;;;;;16.02;100.00;101187.34;5041603;28;20032;-69
2022/09/07 06:01:17;;;;;;;13.20;8.85;;;;;;;16.08;100.00;101175.84;5049152;28;20036;-69
2022/09/07 06:03:43;;;;;;;14.75;9.30;;;;;;;16.11;100.00;101180.25;5048130;28;20364;-69
2022/09/07 06:06:14;;;;;;;13.95;8.93;;;;;;;16.14;100.00;101173.19;5055770;28;20028;-69
2022/09/07 06:08:45;;;;;;;17.42;9.55;;;;;;;16.14;100.00;101177.59;5055279;28;20036;-69
2022/09/07 06:11:13;;;;;;;15.25;8.88;;;;;;;16.16;100.00;101189.97;5054970;28;20492;-69
2022/09/07 06:13:39;;;;;;;15.85;10.38;;;;;;;16.19;100.00;101187.31;5052856;28;20440;-70
2022/09/07 06:16:06;;;;;;;15.57;9.07;;;;;;;16.22;100.00;101198.84;5041012;28;20057;-70
2022/09/07 06:18:34;;;;;;;14.90;8.90;;;;;;;16.25;100.00;101196.16;5035421;28;20029;-69
2022/09/07 06:21:22;;;;;;;13.80;9.18;;;;;;;16.25;100.00;101198.81;5034698;28;20053;-69
2022/09/07 06:23:49;;;;;;;17.23;10.15;;;;;;;16.29;100.00;101190.88;5033899;28;20432;-69
2022/09/07 06:26:15;;;;;;;15.85;9.90;;;;;;;16.33;100.00;101197.03;5035266;28;20112;-70
2022/09/07 06:28:44;;;;;;;13.98;9.77;;;;;;;16.31;100.00;101199.69;5034753;28;20060;-69
2022/09/07 06:31:15;;;;;;;15.88;9.05;;;;;;;16.38;100.00;101207.66;5033518;28;20053;-70
2022/09/07 06:33:41;;;;;;;21.67;11.05;;;;;;;16.39;100.00;101207.66;5041777;28;20072;-70
2022/09/07 06:36:19;;;;;;;16.85;9.70;;;;;;;16.39;100.00;101212.09;5054569;28;20024;-70
2022/09/07 06:38:46;;;;;;;15.85;9.30;;;;;;;16.44;100.00;101212.97;5054795;28;20477;-70
2022/09/07 06:41:23;;;;;;;14.98;9.68;;;;;;;16.46;100.00;101212.06;5040951;28;20112;-69
2022/09/07 06:43:48;;;;;;;17.95;9.95;;;;;;;16.48;100.00;101215.63;5034953;28;20025;-70
2022/09/07 06:46:15;;;;;;;20.02;10.20;;;;;;;16.51;100.00;101212.09;5034527;28;20520;-70
2022/09/07 06:48:41;;;;;;;15.55;10.75;;;;;;;16.58;100.00;101218.28;5035181;28;20034;-70
2022/09/07 06:51:12;;;;;;;16.17;9.93;;;;;;;16.65;100.00;101220.00;5034692;28;20059;-69
2022/09/07 06:53:38;;;;;;;17.23;10.43;;;;;;;16.73;100.00;101222.66;5034843;28;20056;-70
2022/09/07 06:56:08;;;;;;;16.08;10.55;;;;;;;16.75;100.00;101221.72;5034735;28;20103;-70
2022/09/07 06:58:34;;;;;;;13.25;10.18;;;;;;;16.80;100.00;101227.94;5034754;28;20041;-69
2022/09/07 07:01:05;;;;;;;17.05;10.00;;;;;;;16.78;100.00;101229.72;5034689;28;20083;-69
2022/09/07 07:03:31;;;;;;;17.75;10.48;;;;;;;16.85;100.00;101239.44;5035636;28;20040;-69
2022/09/07 07:05:56;;;;;;;14.25;10.38;;;;;;;16.88;100.00;101238.53;5034540;28;20025;-70
2022/09/07 07:08:23;;;;;;;14.77;10.35;;;;;;;16.89;100.00;101239.41;5034371;28;20025;-70
2022/09/07 07:10:50;;;;;;;16.00;11.00;;;;;;;16.91;100.00;101243.88;5034064;28;20156;-70
2022/09/07 07:13:16;;;;;;;13.57;10.20;;;;;;;16.91;100.00;101248.31;5034374;28;20455;-70
2022/09/07 07:15:42;;;;;;;15.65;10.20;;;;;;;16.91;100.00;101243.00;5034307;28;20163;-70
2022/09/07 07:18:08;;;;;;;17.77;9.88;;;;;;;16.90;100.00;101235.91;5035378;28;20013;-69
2022/09/07 07:20:37;;;;;;;12.60;9.93;;;;;;;16.92;100.00;101234.16;5044460;28;20032;-70
2022/09/07 07:23:03;;;;;;;14.43;9.95;;;;;;;16.97;100.00;101237.66;5034662;28;20053;-69
2022/09/07 07:25:29;;;;;;;20.58;10.00;;;;;;;16.99;100.00;101231.44;5034186;28;20037;-71
2022/09/07 07:27:54;;;;;;;15.15;9.93;;;;;;;17.03;100.00;101216.38;5034115;28;20532;-71
2022/09/07 07:30:20;;;;;;;13.30;10.48;;;;;;;17.08;100.00;101227.88;5034060;28;20037;-70
2022/09/07 07:32:45;;;;;;;13.43;10.85;;;;;;;17.16;100.00;101234.03;5033992;28;20113;-70
2022/09/07 07:35:17;;;;;;;14.20;10.10;;;;;;;17.22;100.00;101238.44;5035071;28;20361;-71
2022/09/07 07:37:43;;;;;;;15.40;10.45;;;;;;;17.28;100.00;101243.75;5034002;28;20029;-70
2022/09/07 07:40:11;;;;;;;13.48;10.48;;;;;;;17.30;100.00;101251.72;5033768;28;20036;-71
2022/09/07 07:42:38;;;;;;;13.18;11.07;;;;;;;17.35;100.00;101260.56;5034130;28;20029;-71
2022/09/07 07:45:09;;;;;;;16.20;11.77;;;;;;;17.34;100.00;101256.13;5034015;28;20033;-71
2022/09/07 07:47:34;;;;;;;16.90;11.30;;;;;;;17.30;100.00;101254.38;5033829;28;20487;-70
2022/09/07 07:50:05;;;;;;;12.63;10.73;;;;;;;17.22;100.00;101259.72;5053098;28;20116;-71
2022/09/07 07:52:35;;;;;;;15.88;9.95;;;;;;;17.29;100.00;101256.13;5053526;28;20461;-71
2022/09/07 07:55:01;;;;;;;13.70;10.88;;;;;;;17.28;100.00;101253.47;5052390;28;20013;-71
2022/09/07 07:57:27;;;;;;;15.00;11.02;;;;;;;17.32;100.00;101250.81;5053565;28;20036;-69
2022/09/07 07:59:52;;;;;;;16.48;10.30;;;;;;;17.35;100.00;101249.94;5052938;28;20066;-70
2022/09/07 08:02:18;;;;;;;14.57;9.93;;;;;;;17.42;100.00;101256.97;5053315;28;20111;-71
2022/09/07 08:04:43;;;;;;;14.75;10.35;;;;;;;17.44;100.00;101257.81;5051722;28;20032;-70
2022/09/07 08:07:10;;;;;;;12.82;10.50;;;;;;;17.50;100.00;101252.50;5053661;28;20032;-70
2022/09/07 08:09:40;;;;;;;11.48;9.10;;;;;;;17.53;100.00;101257.78;5052949;28;20114;-71
2022/09/07 08:12:06;;;;;;;12.38;9.35;;;;;;;17.63;100.00;101257.75;5053062;28;20049;-70
2022/09/07 08:14:31;;;;;;;10.63;8.75;;;;;;;17.70;100.00;101240.81;5053413;28;20035;-71
2022/09/07 08:16:57;;;;;;;10.15;7.97;;;;;;;17.78;100.00;101243.44;5053279;28;20021;-70
2022/09/07 08:19:22;;;;;;;14.27;8.70;;;;;;;17.90;100.00;101237.16;5051386;28;20419;-69
2022/09/07 08:21:47;;;;;;;10.82;8.20;;;;;;;17.91;100.00;101233.59;5053047;28;20106;-70
2022/09/07 08:24:13;;;;;;;11.43;8.73;;;;;;;17.98;100.00;101238.00;5047534;28;20072;-70
2022/09/07 08:26:38;;;;;;;13.85;8.75;;;;;;;18.10;100.00;101235.25;5033210;28;20033;-70
2022/09/07 08:29:03;;;;;;;10.63;7.95;;;;;;;18.17;100.00;101228.97;5032946;28;20371;-70
2022/09/07 08:31:28;;;;;;;15.43;8.70;;;;;;;18.23;100.00;101229.81;5032953;28;20026;-72
2022/09/07 08:33:54;;;;;;;12.50;7.90;;;;;;;18.33;100.00;101248.34;5033087;28;20031;-72
2022/09/07 08:36:20;;;;;;;12.32;7.40;;;;;;;18.46;100.00;101235.81;5032835;28;20592;-71
2022/09/07 08:38:46;;;;;;;9.55;7.63;;;;;;;18.54;100.00;101230.38;5033227;28;20017;-71
2022/09/07 08:41:50;;;;;;;10.35;7.43;;;;;;;18.71;100.00;101238.22;5034139;28;20029;-71
2022/09/07 08:44:30;;;;;;;13.55;8.27;;;;;;;18.79;100.00;101231.03;5032934;28;20033;-71
2022/09/07 08:47:03;;;;;;;11.80;7.60;;;;;;;18.87;100.00;101228.28;5032893;28;20021;-72
2022/09/07 08:49:35;;;;;;;8.35;6.63;;;;;;;19.02;100.00;101232.56;5032799;28;20060;-72
2022/09/07 08:52:11;;;;;;;12.93;7.65;;;;;;;19.12;100.00;101239.53;5032676;28;20064;-72
2022/09/07 08:54:39;;;;;;;12.02;6.65;;;;;;;19.16;100.00;101233.25;5040386;28;20024;-70
2022/09/07 08:57:04;;;;;;;7.20;6.20;;;;;;;19.13;100.00;101229.78;5052777;28;20017;-70
2022/09/07 08:59:42;;;;;;;13.68;6.88;;;;;;;19.21;100.00;101227.88;5052482;28;20966;-72
2022/09/07 09:02:13;;;;;;;9.63;5.93;;;;;;;19.29;100.00;101235.75;5052849;28;20381;-72
2022/09/07 09:04:39;;;;;;;9.20;6.15;;;;;;;19.38;100.00;101230.31;5052675;28;20071;-71
2022/09/07 09:07:22;;;;;;;10.18;6.07;;;;;;;19.57;100.00;101236.28;5052693;28;20450;-72
2022/09/07 09:10:06;;;;;;;9.73;4.65;;;;;;;19.69;100.00;101233.41;5050591;28;20032;-72
2022/09/07 09:12:51;;;;;;;;;;;;;;;19.76;100.00;101238.66;5056900;28;20049;-72
2022/09/07 09:16:13;;;;;;;8.75;4.13;;;;;;;19.99;100.00;101235.66;5056630;28;20295;-72
2022/09/07 09:19:14;;;;;;;5.40;3.13;;;;;;;20.08;100.00;101240.88;5034414;28;20057;-72
2022/09/07 09:21:41;;;;;;;7.68;2.97;;;;;;;20.16;100.00;101233.59;5034390;28;20068;-72
2022/09/07 09:24:15;;;;;;;7.65;2.75;;;;;;;20.23;100.00;101233.50;5046173;28;20445;-71
2022/09/07 09:26:44;;;;;;;9.82;2.78;;;;;;;20.23;100.00;101237.06;5044751;28;20040;-72
2022/09/07 09:29:17;;;;;;;9.93;2.45;;;;;;;20.29;100.00;101234.25;5056398;28;20028;-70
2022/09/07 09:31:43;;;;;;;7.95;2.85;;;;;;;20.38;100.00;101239.44;5056250;28;20389;-72
2022/09/07 09:34:16;;;;;;;5.95;2.80;;;;;;;20.30;100.00;101243.16;5056266;28;20040;-71
2022/09/07 09:36:44;;;;;;;9.02;3.20;;;;;;;20.23;100.00;101242.41;5056101;28;20108;-72
2022/09/07 09:39:35;;;;;;;11.70;3.00;;;;;;;20.16;100.00;101244.28;5054166;28;20127;-73
2022/09/07 09:42:22;;;;;;;8.73;2.67;;;;;;;20.16;100.00;101241.63;5036191;28;20052;-72
2022/09/07 09:44:48;;;;;;;6.28;2.03;;;;;;;20.27;100.00;101240.56;5036016;28;20380;-71
2022/09/07 09:47:29;;;;;;;7.97;2.10;;;;;;;20.31;100.00;101235.13;5035997;28;20026;-71
2022/09/07 09:49:56;;;;;;;9.35;2.47;;;;;;;20.49;100.00;101235.69;5035847;28;20056;-71
2022/09/07 09:52:23;;;;;;;8.75;1.73;;;;;;;20.59;100.00;101225.72;5036103;28;20026;-72
2022/09/07 09:54:52;;;;;;;10.80;1.98;;;;;;;20.76;100.00;101226.31;5037100;28;20095;-72
2022/09/07 09:57:47;;;;;;;6.93;1.90;;;;;;;20.84;100.00;101232.38;5035746;28;20029;-70
2022/09/07 10:00:16;;;;;;;12.30;2.03;;;;;;;20.93;100.00;101227.75;5035901;28;20022;-71
2022/09/07 10:03:01;;;;;;;4.32;1.50;;;;;;;21.13;100.00;101222.84;5035874;28;20017;-72
2022/09/07 10:05:33;;;;;;;7.35;1.98;;;;;;;21.33;100.00;101229.59;5035721;28;20556;-71
2022/09/07 10:07:59;;;;;;;10.00;3.47;;;;;;;21.49;100.00;101222.09;5035691;28;20132;-72
2022/09/07 10:10:26;;;;;;;6.03;1.65;;;;;;;21.52;100.00;101225.56;5036535;28;20536;-72
2022/09/07 10:12:53;;;;;;;7.40;1.90;;;;;;;21.68;100.00;101220.78;5035422;28;20370;-73
2022/09/07 10:15:36;;;;;;;6.90;1.77;;;;;;;21.88;100.00;101233.69;5035487;28;20504;-71
2022/09/07 10:18:05;;;;;;;10.75;1.77;;;;;;;22.01;100.00;101230.72;5035372;28;20029;-72
2022/09/07 10:20:36;;;;;;;5.53;1.48;;;;;;;21.94;100.00;101234.47;5035316;28;20021;-71
2022/09/07 10:23:04;;;;;;;4.45;1.45;;;;;;;22.03;100.00;101234.22;5035035;28;20060;-70
2022/09/07 10:25:35;;;;;;;6.45;1.70;;;;;;;22.23;100.00;101225.69;5039999;28;20427;-72
2022/09/07 10:28:08;;;;;;;7.43;1.67;;;;;;;22.43;100.00;101208.22;5035409;28;20061;-72
2022/09/07 10:31:20;;;;;;;8.05;1.90;;;;;;;22.42;100.00;101212.69;5035178;28;20037;-71
2022/09/07 10:34:10;;;;;;;9.07;2.33;;;;;;;22.46;100.00;101221.53;5037639;28;20363;-70
2022/09/07 10:36:42;;;;;;;5.78;1.25;;;;;;;22.39;100.00;101224.38;5054404;28;20025;-71
2022/09/07 10:39:16;;;;;;;5.35;1.77;;;;;;;22.10;100.00;101224.22;5040550;28;20056;-72
2022/09/07 10:42:03;;;;;;;6.15;1.70;;;;;;;21.74;100.00;101225.09;5046044;28;20042;-72
2022/09/07 10:44:58;;;;;;;7.13;2.13;;;;;;;21.83;100.00;101227.56;5045905;28;20094;-72
2022/09/07 10:47:58;;;;;;;6.47;2.20;;;;;;;21.95;100.00;101222.81;5044925;28;20503;-72
2022/09/07 10:50:45;;;;;;;8.57;1.70;;;;;;;22.30;100.00;101215.66;5043373;28;20459;-71
2022/09/07 10:53:40;;;;;;;11.77;1.90;;;;;;;22.23;100.00;101215.84;5044305;28;20022;-72
2022/09/07 10:56:21;;;;;;;4.80;1.98;;;;;;;22.44;100.00;101212.69;5035198;28;20183;-71
2022/09/07 10:59:04;;;;;;;8.00;2.10;;;;;;;22.68;100.00;101208.41;5051659;28;20489;-72
2022/09/07 11:02:19;;;;;;;5.82;2.13;;;;;;;22.79;100.00;101208.09;5049260;28;20064;-72
2022/09/07 11:05:14;;;;;;;7.35;1.67;;;;;;;23.03;100.00;101211.88;5033472;28;20060;-72
2022/09/07 11:07:51;;;;;;;5.20;1.83;;;;;;;23.13;100.00;101205.38;5040733;28;20027;-71
2022/09/07 11:11:00;;;;;;;6.38;2.00;;;;;;;23.18;100.00;101210.59;5052662;28;20025;-73
2022/09/07 11:13:29;;;;;;;6.47;1.92;;;;;;;23.41;100.00;101199.13;5043694;28;20053;-72
2022/09/07 11:16:02;;;;;;;8.10;1.88;;;;;;;23.31;99.29;101205.72;5052581;28;20100;-73
2022/09/07 11:18:38;;;;;;;9.20;2.38;;;;;;;23.44;100.00;101209.78;5060611;28;20477;-72
2022/09/07 11:21:11;;;;;;;8.38;1.52;;;;;;;23.76;100.00;101205.19;5045138;28;20147;-67
2022/09/07 11:23:44;;;;;;;7.00;1.98;;;;;;;24.03;99.49;101205.22;5043151;28;20039;-69
2022/09/07 11:26:19;;;;;;;10.00;2.03;;;;;;;24.02;99.68;101198.97;5048796;28;20021;-69
2022/09/07 11:28:53;;;;;;;7.32;2.45;;;;;;;24.36;96.65;101202.28;5034585;28;20116;-70
2022/09/07 11:31:23;;;;;;;8.80;2.03;;;;;;;24.77;93.65;101201.75;5040091;28;20075;-70
2022/09/07 11:34:14;;;;;;;6.38;2.10;;;;;;;24.61;90.70;101204.09;5038207;28;20029;-69